Ketchikan, Alaska
Current Conditions -  °F | °C
As of 12:07 PM on Thursday 23 Oct 2014 (Local Time) from PAKT Reporting Station
Light Rain Light Rain  
Wind Chill: 46°   Ceiling: 3100
Heat Index: 46°   Visibility: 10mi
Dew Point: 43°   Wind: 0mph
Humidity: 87%   Direction: NA
Pressure: 29.62"   Gusts: NA
Location:  55.35°N, 131.69°W
Report Text: PAKT 232007Z 00000KT 10SM -RA SCT025 BKN031 OVC039 08/06 A2962 RMK AO2 RAB00 P0000
Loading
Personal Weather Stations






























Interactive Weather Map New forecast layout! Learn more

10-Day Weather Forecast

Advertisements
Track Severe Weather on mobile